sensor_id;sensor_type;location;lat;lon;timestamp;P1;durP1;ratioP1;P2;durP2;ratioP2
48835;SDS011;62581;47.342;7.908;2024-03-08T00:01:20;68.85;;;29.27;;
48835;SDS011;62581;47.342;7.908;2024-03-08T00:03:49;70.30;;;28.45;;
48835;SDS011;62581;47.342;7.908;2024-03-08T00:06:17;64.07;;;30.08;;
48835;SDS011;62581;47.342;7.908;2024-03-08T00:08:44;72.72;;;30.45;;
48835;SDS011;62581;47.342;7.908;2024-03-08T00:11:11;63.15;;;27.70;;
48835;SDS011;62581;47.342;7.908;2024-03-08T00:13:38;64.22;;;28.38;;
48835;SDS011;62581;47.342;7.908;2024-03-08T00:16:05;57.28;;;27.52;;
48835;SDS011;62581;47.342;7.908;2024-03-08T00:18:34;56.78;;;26.75;;
48835;SDS011;62581;47.342;7.908;2024-03-08T00:21:03;61.15;;;27.38;;
48835;SDS011;62581;47.342;7.908;2024-03-08T00:23:30;52.65;;;24.48;;
48835;SDS011;62581;47.342;7.908;2024-03-08T00:25:58;58.53;;;26.48;;
48835;SDS011;62581;47.342;7.908;2024-03-08T00:28:25;48.67;;;22.23;;
48835;SDS011;62581;47.342;7.908;2024-03-08T00:30:52;46.78;;;22.17;;
48835;SDS011;62581;47.342;7.908;2024-03-08T00:33:19;47.50;;;21.33;;
48835;SDS011;62581;47.342;7.908;2024-03-08T00:35:46;44.90;;;21.95;;
48835;SDS011;62581;47.342;7.908;2024-03-08T00:38:15;47.75;;;21.52;;
48835;SDS011;62581;47.342;7.908;2024-03-08T00:40:43;45.47;;;21.58;;
48835;SDS011;62581;47.342;7.908;2024-03-08T00:43:11;52.63;;;22.73;;
48835;SDS011;62581;47.342;7.908;2024-03-08T00:45:38;47.42;;;22.50;;
48835;SDS011;62581;47.342;7.908;2024-03-08T00:48:07;44.78;;;22.23;;
48835;SDS011;62581;47.342;7.908;2024-03-08T00:50:36;45.35;;;22.23;;
48835;SDS011;62581;47.342;7.908;2024-03-08T00:53:03;49.25;;;21.90;;
48835;SDS011;62581;47.342;7.908;2024-03-08T00:55:32;38.78;;;20.88;;
48835;SDS011;62581;47.342;7.908;2024-03-08T00:58:00;42.90;;;21.55;;
48835;SDS011;62581;47.342;7.908;2024-03-08T01:00:27;51.87;;;22.77;;
48835;SDS011;62581;47.342;7.908;2024-03-08T01:02:54;48.15;;;22.10;;
48835;SDS011;62581;47.342;7.908;2024-03-08T01:05:21;45.72;;;21.45;;
48835;SDS011;62581;47.342;7.908;2024-03-08T01:07:50;48.90;;;22.23;;
48835;SDS011;62581;47.342;7.908;2024-03-08T01:10:17;48.08;;;20.98;;
48835;SDS011;62581;47.342;7.908;2024-03-08T01:12:45;47.65;;;22.35;;
48835;SDS011;62581;47.342;7.908;2024-03-08T01:15:12;44.05;;;21.25;;
48835;SDS011;62581;47.342;7.908;2024-03-08T01:17:39;43.10;;;21.05;;
48835;SDS011;62581;47.342;7.908;2024-03-08T01:20:07;45.65;;;21.40;;
48835;SDS011;62581;47.342;7.908;2024-03-08T01:22:36;47.53;;;21.38;;
48835;SDS011;62581;47.342;7.908;2024-03-08T01:25:03;45.00;;;21.40;;
48835;SDS011;62581;47.342;7.908;2024-03-08T01:27:31;41.92;;;20.77;;
48835;SDS011;62581;47.342;7.908;2024-03-08T01:29:59;46.08;;;21.13;;
48835;SDS011;62581;47.342;7.908;2024-03-08T01:32:26;43.35;;;20.05;;
48835;SDS011;62581;47.342;7.908;2024-03-08T01:34:53;43.30;;;21.42;;
48835;SDS011;62581;47.342;7.908;2024-03-08T01:37:20;52.00;;;23.17;;
48835;SDS011;62581;47.342;7.908;2024-03-08T01:39:47;45.70;;;22.10;;
48835;SDS011;62581;47.342;7.908;2024-03-08T01:42:15;44.58;;;21.23;;
48835;SDS011;62581;47.342;7.908;2024-03-08T01:44:42;47.53;;;21.55;;
48835;SDS011;62581;47.342;7.908;2024-03-08T01:47:11;41.05;;;20.65;;
48835;SDS011;62581;47.342;7.908;2024-03-08T01:52:05;46.38;;;21.35;;
48835;SDS011;62581;47.342;7.908;2024-03-08T01:54:33;43.08;;;21.40;;
48835;SDS011;62581;47.342;7.908;2024-03-08T01:57:01;51.85;;;21.38;;
48835;SDS011;62581;47.342;7.908;2024-03-08T01:59:28;43.42;;;20.48;;
48835;SDS011;62581;47.342;7.908;2024-03-08T02:01:56;49.40;;;20.38;;
48835;SDS011;62581;47.342;7.908;2024-03-08T02:04:29;42.28;;;20.25;;
48835;SDS011;62581;47.342;7.908;2024-03-08T02:06:57;41.90;;;21.30;;
48835;SDS011;62581;47.342;7.908;2024-03-08T02:09:24;44.13;;;20.35;;
48835;SDS011;62581;47.342;7.908;2024-03-08T02:11:51;37.28;;;18.75;;
48835;SDS011;62581;47.342;7.908;2024-03-08T02:16:46;42.60;;;19.75;;
48835;SDS011;62581;47.342;7.908;2024-03-08T02:19:13;42.95;;;19.67;;
48835;SDS011;62581;47.342;7.908;2024-03-08T02:21:42;42.53;;;19.38;;
48835;SDS011;62581;47.342;7.908;2024-03-08T02:24:12;40.28;;;18.58;;
48835;SDS011;62581;47.342;7.908;2024-03-08T02:26:39;43.97;;;20.20;;
48835;SDS011;62581;47.342;7.908;2024-03-08T02:29:07;46.80;;;20.40;;
48835;SDS011;62581;47.342;7.908;2024-03-08T02:31:35;39.13;;;19.33;;
48835;SDS011;62581;47.342;7.908;2024-03-08T02:34:02;42.55;;;19.75;;
48835;SDS011;62581;47.342;7.908;2024-03-08T02:36:30;42.90;;;18.80;;
48835;SDS011;62581;47.342;7.908;2024-03-08T02:39:01;44.83;;;18.85;;
48835;SDS011;62581;47.342;7.908;2024-03-08T02:41:30;38.22;;;19.30;;
48835;SDS011;62581;47.342;7.908;2024-03-08T02:43:57;45.30;;;19.52;;
48835;SDS011;62581;47.342;7.908;2024-03-08T02:46:25;39.25;;;18.85;;
48835;SDS011;62581;47.342;7.908;2024-03-08T02:48:52;42.22;;;19.13;;
48835;SDS011;62581;47.342;7.908;2024-03-08T02:51:19;37.72;;;18.92;;
48835;SDS011;62581;47.342;7.908;2024-03-08T02:53:46;39.97;;;18.45;;
48835;SDS011;62581;47.342;7.908;2024-03-08T02:56:18;45.55;;;19.55;;
48835;SDS011;62581;47.342;7.908;2024-03-08T02:58:47;47.55;;;20.27;;
48835;SDS011;62581;47.342;7.908;2024-03-08T03:01:14;42.25;;;20.45;;
48835;SDS011;62581;47.342;7.908;2024-03-08T03:03:41;40.72;;;18.98;;
48835;SDS011;62581;47.342;7.908;2024-03-08T03:06:08;45.20;;;19.77;;
48835;SDS011;62581;47.342;7.908;2024-03-08T03:08:35;42.60;;;20.27;;
48835;SDS011;62581;47.342;7.908;2024-03-08T03:11:03;42.00;;;19.42;;
48835;SDS011;62581;47.342;7.908;2024-03-08T03:13:32;43.55;;;19.98;;
48835;SDS011;62581;47.342;7.908;2024-03-08T03:15:59;43.42;;;21.30;;
48835;SDS011;62581;47.342;7.908;2024-03-08T03:18:26;44.97;;;20.77;;
48835;SDS011;62581;47.342;7.908;2024-03-08T03:20:53;46.38;;;20.85;;
48835;SDS011;62581;47.342;7.908;2024-03-08T03:23:21;41.67;;;19.02;;
48835;SDS011;62581;47.342;7.908;2024-03-08T03:25:48;37.13;;;18.58;;
48835;SDS011;62581;47.342;7.908;2024-03-08T03:28:17;43.70;;;19.70;;
48835;SDS011;62581;47.342;7.908;2024-03-08T03:30:48;46.88;;;21.27;;
48835;SDS011;62581;47.342;7.908;2024-03-08T03:33:15;46.90;;;20.63;;
48835;SDS011;62581;47.342;7.908;2024-03-08T03:35:42;48.45;;;20.38;;
48835;SDS011;62581;47.342;7.908;2024-03-08T03:38:10;56.75;;;20.45;;
48835;SDS011;62581;47.342;7.908;2024-03-08T03:40:39;45.00;;;20.05;;
48835;SDS011;62581;47.342;7.908;2024-03-08T03:43:07;40.95;;;19.15;;
48835;SDS011;62581;47.342;7.908;2024-03-08T03:45:35;41.67;;;19.55;;
48835;SDS011;62581;47.342;7.908;2024-03-08T03:48:04;40.65;;;19.88;;
48835;SDS011;62581;47.342;7.908;2024-03-08T03:50:34;45.63;;;20.60;;
48835;SDS011;62581;47.342;7.908;2024-03-08T03:53:01;42.15;;;21.25;;
48835;SDS011;62581;47.342;7.908;2024-03-08T03:55:29;45.60;;;20.15;;
48835;SDS011;62581;47.342;7.908;2024-03-08T03:57:55;41.08;;;19.75;;
48835;SDS011;62581;47.342;7.908;2024-03-08T04:00:24;38.03;;;19.80;;
48835;SDS011;62581;47.342;7.908;2024-03-08T04:02:52;45.25;;;21.88;;
48835;SDS011;62581;47.342;7.908;2024-03-08T04:05:21;39.65;;;19.23;;
48835;SDS011;62581;47.342;7.908;2024-03-08T04:10:15;37.88;;;19.60;;
48835;SDS011;62581;47.342;7.908;2024-03-08T04:12:42;47.78;;;21.15;;
48835;SDS011;62581;47.342;7.908;2024-03-08T04:15:09;42.78;;;19.95;;
48835;SDS011;62581;47.342;7.908;2024-03-08T04:17:36;40.20;;;20.60;;
48835;SDS011;62581;47.342;7.908;2024-03-08T04:20:03;53.45;;;23.10;;
48835;SDS011;62581;47.342;7.908;2024-03-08T04:22:36;42.92;;;20.08;;
48835;SDS011;62581;47.342;7.908;2024-03-08T04:25:04;43.60;;;20.40;;
48835;SDS011;62581;47.342;7.908;2024-03-08T04:27:32;42.45;;;22.17;;
48835;SDS011;62581;47.342;7.908;2024-03-08T04:29:59;43.97;;;21.65;;
48835;SDS011;62581;47.342;7.908;2024-03-08T04:32:26;52.22;;;22.40;;
48835;SDS011;62581;47.342;7.908;2024-03-08T04:34:54;44.35;;;22.23;;
48835;SDS011;62581;47.342;7.908;2024-03-08T04:37:22;46.10;;;21.90;;
48835;SDS011;62581;47.342;7.908;2024-03-08T04:39:50;45.80;;;21.00;;
48835;SDS011;62581;47.342;7.908;2024-03-08T04:44:44;49.83;;;20.92;;
48835;SDS011;62581;47.342;7.908;2024-03-08T04:47:11;52.95;;;23.10;;
48835;SDS011;62581;47.342;7.908;2024-03-08T04:49:39;51.75;;;22.80;;
48835;SDS011;62581;47.342;7.908;2024-03-08T04:52:06;48.40;;;21.65;;
48835;SDS011;62581;47.342;7.908;2024-03-08T04:54:33;44.58;;;22.48;;
48835;SDS011;62581;47.342;7.908;2024-03-08T04:57:01;47.20;;;23.85;;
48835;SDS011;62581;47.342;7.908;2024-03-08T04:59:29;51.85;;;22.73;;
48835;SDS011;62581;47.342;7.908;2024-03-08T05:01:57;53.35;;;24.15;;
48835;SDS011;62581;47.342;7.908;2024-03-08T05:04:24;49.00;;;22.98;;
48835;SDS011;62581;47.342;7.908;2024-03-08T05:06:51;44.03;;;23.00;;
48835;SDS011;62581;47.342;7.908;2024-03-08T05:09:18;54.30;;;24.27;;
48835;SDS011;62581;47.342;7.908;2024-03-08T05:11:46;55.97;;;25.80;;
48835;SDS011;62581;47.342;7.908;2024-03-08T05:14:15;54.05;;;24.33;;
48835;SDS011;62581;47.342;7.908;2024-03-08T05:16:45;50.75;;;23.40;;
48835;SDS011;62581;47.342;7.908;2024-03-08T05:21:41;49.50;;;23.50;;
48835;SDS011;62581;47.342;7.908;2024-03-08T05:24:09;44.90;;;21.30;;
48835;SDS011;62581;47.342;7.908;2024-03-08T05:26:36;48.78;;;22.65;;
48835;SDS011;62581;47.342;7.908;2024-03-08T05:29:03;51.72;;;24.38;;
48835;SDS011;62581;47.342;7.908;2024-03-08T05:31:32;49.63;;;23.08;;
48835;SDS011;62581;47.342;7.908;2024-03-08T05:34:05;45.42;;;22.27;;
48835;SDS011;62581;47.342;7.908;2024-03-08T05:36:35;52.00;;;23.88;;
48835;SDS011;62581;47.342;7.908;2024-03-08T05:39:02;59.60;;;25.73;;
48835;SDS011;62581;47.342;7.908;2024-03-08T05:41:31;55.60;;;26.30;;
48835;SDS011;62581;47.342;7.908;2024-03-08T05:43:58;57.45;;;24.65;;
48835;SDS011;62581;47.342;7.908;2024-03-08T05:46:25;49.60;;;24.20;;
48835;SDS011;62581;47.342;7.908;2024-03-08T05:48:54;53.15;;;26.05;;
48835;SDS011;62581;47.342;7.908;2024-03-08T05:51:23;47.97;;;22.55;;
48835;SDS011;62581;47.342;7.908;2024-03-08T05:53:51;49.45;;;24.05;;
48835;SDS011;62581;47.342;7.908;2024-03-08T05:56:18;54.40;;;24.90;;
48835;SDS011;62581;47.342;7.908;2024-03-08T05:58:45;54.88;;;26.85;;
48835;SDS011;62581;47.342;7.908;2024-03-08T06:01:15;61.10;;;26.17;;
48835;SDS011;62581;47.342;7.908;2024-03-08T06:03:42;54.88;;;26.80;;
48835;SDS011;62581;47.342;7.908;2024-03-08T06:06:12;42.47;;;19.35;;
48835;SDS011;62581;47.342;7.908;2024-03-08T06:11:08;59.97;;;26.80;;
48835;SDS011;62581;47.342;7.908;2024-03-08T06:13:35;57.38;;;27.50;;
48835;SDS011;62581;47.342;7.908;2024-03-08T06:16:02;55.42;;;26.15;;
48835;SDS011;62581;47.342;7.908;2024-03-08T06:18:29;67.07;;;28.80;;
48835;SDS011;62581;47.342;7.908;2024-03-08T06:20:56;65.53;;;28.52;;
48835;SDS011;62581;47.342;7.908;2024-03-08T06:23:25;58.60;;;29.35;;
48835;SDS011;62581;47.342;7.908;2024-03-08T06:25:52;70.38;;;29.45;;
48835;SDS011;62581;47.342;7.908;2024-03-08T06:28:19;62.85;;;29.73;;
48835;SDS011;62581;47.342;7.908;2024-03-08T06:30:46;62.17;;;28.92;;
48835;SDS011;62581;47.342;7.908;2024-03-08T06:33:15;58.95;;;29.20;;
48835;SDS011;62581;47.342;7.908;2024-03-08T06:35:43;70.32;;;31.40;;
48835;SDS011;62581;47.342;7.908;2024-03-08T06:38:10;69.75;;;32.15;;
48835;SDS011;62581;47.342;7.908;2024-03-08T06:40:39;60.45;;;29.70;;
48835;SDS011;62581;47.342;7.908;2024-03-08T06:43:06;62.83;;;28.85;;
48835;SDS011;62581;47.342;7.908;2024-03-08T06:45:33;58.22;;;27.85;;
48835;SDS011;62581;47.342;7.908;2024-03-08T06:48:02;61.33;;;29.73;;
48835;SDS011;62581;47.342;7.908;2024-03-08T06:50:34;59.25;;;28.48;;
48835;SDS011;62581;47.342;7.908;2024-03-08T06:53:02;68.95;;;32.88;;
48835;SDS011;62581;47.342;7.908;2024-03-08T06:55:29;68.60;;;31.73;;
48835;SDS011;62581;47.342;7.908;2024-03-08T06:57:57;62.67;;;28.83;;
48835;SDS011;62581;47.342;7.908;2024-03-08T07:00:24;64.38;;;29.40;;
48835;SDS011;62581;47.342;7.908;2024-03-08T07:02:53;56.30;;;29.35;;
48835;SDS011;62581;47.342;7.908;2024-03-08T07:05:21;61.38;;;28.02;;
48835;SDS011;62581;47.342;7.908;2024-03-08T07:07:48;53.97;;;26.90;;
48835;SDS011;62581;47.342;7.908;2024-03-08T07:10:16;50.40;;;25.13;;
48835;SDS011;62581;47.342;7.908;2024-03-08T07:12:44;59.90;;;27.92;;
48835;SDS011;62581;47.342;7.908;2024-03-08T07:15:13;52.50;;;27.02;;
48835;SDS011;62581;47.342;7.908;2024-03-08T07:17:40;58.35;;;27.10;;
48835;SDS011;62581;47.342;7.908;2024-03-08T07:20:10;56.88;;;26.50;;
48835;SDS011;62581;47.342;7.908;2024-03-08T07:22:38;57.55;;;27.98;;
48835;SDS011;62581;47.342;7.908;2024-03-08T07:25:06;56.40;;;27.88;;
48835;SDS011;62581;47.342;7.908;2024-03-08T07:27:45;54.58;;;26.90;;
48835;SDS011;62581;47.342;7.908;2024-03-08T07:30:14;58.00;;;27.83;;
48835;SDS011;62581;47.342;7.908;2024-03-08T07:33:04;58.92;;;27.42;;
48835;SDS011;62581;47.342;7.908;2024-03-08T07:35:32;60.28;;;28.38;;
48835;SDS011;62581;47.342;7.908;2024-03-08T07:38:02;54.38;;;26.65;;
48835;SDS011;62581;47.342;7.908;2024-03-08T07:40:30;54.60;;;27.25;;
48835;SDS011;62581;47.342;7.908;2024-03-08T07:42:57;51.72;;;25.88;;
48835;SDS011;62581;47.342;7.908;2024-03-08T07:45:26;56.10;;;24.67;;
48835;SDS011;62581;47.342;7.908;2024-03-08T07:47:53;47.60;;;25.17;;
48835;SDS011;62581;47.342;7.908;2024-03-08T07:50:21;48.85;;;25.05;;
48835;SDS011;62581;47.342;7.908;2024-03-08T07:52:48;53.95;;;25.10;;
48835;SDS011;62581;47.342;7.908;2024-03-08T07:55:15;49.22;;;25.17;;
48835;SDS011;62581;47.342;7.908;2024-03-08T07:57:42;51.83;;;24.83;;
48835;SDS011;62581;47.342;7.908;2024-03-08T08:00:09;49.95;;;25.60;;
48835;SDS011;62581;47.342;7.908;2024-03-08T08:02:44;51.75;;;24.63;;
48835;SDS011;62581;47.342;7.908;2024-03-08T08:05:11;48.17;;;24.63;;
48835;SDS011;62581;47.342;7.908;2024-03-08T08:07:39;49.20;;;23.70;;
48835;SDS011;62581;47.342;7.908;2024-03-08T08:10:09;44.70;;;22.45;;
48835;SDS011;62581;47.342;7.908;2024-03-08T08:12:42;43.83;;;21.25;;
48835;SDS011;62581;47.342;7.908;2024-03-08T08:15:09;44.58;;;21.73;;
48835;SDS011;62581;47.342;7.908;2024-03-08T08:17:36;39.40;;;20.85;;
48835;SDS011;62581;47.342;7.908;2024-03-08T08:20:05;40.28;;;21.05;;
48835;SDS011;62581;47.342;7.908;2024-03-08T08:22:33;44.55;;;22.02;;
48835;SDS011;62581;47.342;7.908;2024-03-08T08:25:00;45.85;;;22.83;;
48835;SDS011;62581;47.342;7.908;2024-03-08T08:27:28;46.28;;;24.45;;
48835;SDS011;62581;47.342;7.908;2024-03-08T08:29:55;45.97;;;23.35;;
48835;SDS011;62581;47.342;7.908;2024-03-08T08:32:22;47.85;;;23.42;;
48835;SDS011;62581;47.342;7.908;2024-03-08T08:34:49;45.88;;;23.60;;
48835;SDS011;62581;47.342;7.908;2024-03-08T08:37:18;45.88;;;24.38;;
48835;SDS011;62581;47.342;7.908;2024-03-08T08:39:45;51.28;;;23.42;;
48835;SDS011;62581;47.342;7.908;2024-03-08T08:42:12;46.35;;;22.40;;
48835;SDS011;62581;47.342;7.908;2024-03-08T08:44:39;44.22;;;23.67;;
48835;SDS011;62581;47.342;7.908;2024-03-08T08:47:06;42.88;;;21.40;;
48835;SDS011;62581;47.342;7.908;2024-03-08T08:49:33;47.45;;;25.15;;
48835;SDS011;62581;47.342;7.908;2024-03-08T08:52:00;46.40;;;23.60;;
48835;SDS011;62581;47.342;7.908;2024-03-08T08:54:29;45.65;;;22.98;;
48835;SDS011;62581;47.342;7.908;2024-03-08T08:56:56;44.20;;;22.83;;
48835;SDS011;62581;47.342;7.908;2024-03-08T08:59:23;39.63;;;21.40;;
48835;SDS011;62581;47.342;7.908;2024-03-08T09:01:51;46.10;;;23.85;;
48835;SDS011;62581;47.342;7.908;2024-03-08T09:04:19;43.42;;;21.48;;
48835;SDS011;62581;47.342;7.908;2024-03-08T09:06:48;39.10;;;20.40;;
48835;SDS011;62581;47.342;7.908;2024-03-08T09:09:15;39.28;;;19.70;;
48835;SDS011;62581;47.342;7.908;2024-03-08T09:11:44;37.70;;;20.25;;
48835;SDS011;62581;47.342;7.908;2024-03-08T09:16:38;39.20;;;20.45;;
48835;SDS011;62581;47.342;7.908;2024-03-08T09:19:05;38.45;;;19.98;;
48835;SDS011;62581;47.342;7.908;2024-03-08T09:21:32;38.30;;;19.75;;
48835;SDS011;62581;47.342;7.908;2024-03-08T09:24:00;34.78;;;19.17;;
48835;SDS011;62581;47.342;7.908;2024-03-08T09:26:27;37.53;;;19.02;;
48835;SDS011;62581;47.342;7.908;2024-03-08T09:28:55;37.90;;;19.58;;
48835;SDS011;62581;47.342;7.908;2024-03-08T09:31:22;38.60;;;19.77;;
48835;SDS011;62581;47.342;7.908;2024-03-08T09:33:49;54.90;;;22.48;;
48835;SDS011;62581;47.342;7.908;2024-03-08T09:36:17;38.72;;;19.30;;
48835;SDS011;62581;47.342;7.908;2024-03-08T09:38:44;39.88;;;18.95;;
48835;SDS011;62581;47.342;7.908;2024-03-08T09:41:12;41.33;;;19.83;;
48835;SDS011;62581;47.342;7.908;2024-03-08T09:43:39;42.03;;;20.05;;
48835;SDS011;62581;47.342;7.908;2024-03-08T09:46:08;38.53;;;19.30;;
48835;SDS011;62581;47.342;7.908;2024-03-08T09:48:36;37.95;;;19.15;;
48835;SDS011;62581;47.342;7.908;2024-03-08T09:51:06;37.08;;;19.58;;
48835;SDS011;62581;47.342;7.908;2024-03-08T09:53:38;39.83;;;19.60;;
48835;SDS011;62581;47.342;7.908;2024-03-08T09:56:07;37.60;;;19.27;;
48835;SDS011;62581;47.342;7.908;2024-03-08T09:58:34;34.13;;;18.30;;
48835;SDS011;62581;47.342;7.908;2024-03-08T10:01:20;37.63;;;19.45;;
48835;SDS011;62581;47.342;7.908;2024-03-08T10:03:47;37.08;;;19.48;;
48835;SDS011;62581;47.342;7.908;2024-03-08T10:06:15;36.83;;;19.85;;
48835;SDS011;62581;47.342;7.908;2024-03-08T10:08:42;36.50;;;19.05;;
48835;SDS011;62581;47.342;7.908;2024-03-08T10:11:10;39.30;;;19.47;;
48835;SDS011;62581;47.342;7.908;2024-03-08T10:13:37;38.30;;;19.17;;
48835;SDS011;62581;47.342;7.908;2024-03-08T10:16:06;39.47;;;19.02;;
48835;SDS011;62581;47.342;7.908;2024-03-08T10:18:35;33.78;;;18.98;;
48835;SDS011;62581;47.342;7.908;2024-03-08T10:21:05;39.17;;;20.17;;
48835;SDS011;62581;47.342;7.908;2024-03-08T10:23:35;34.20;;;18.15;;
48835;SDS011;62581;47.342;7.908;2024-03-08T10:26:09;37.85;;;18.63;;
48835;SDS011;62581;47.342;7.908;2024-03-08T10:28:39;37.17;;;19.73;;
48835;SDS011;62581;47.342;7.908;2024-03-08T10:31:08;31.90;;;17.90;;
48835;SDS011;62581;47.342;7.908;2024-03-08T10:33:37;34.70;;;20.48;;
48835;SDS011;62581;47.342;7.908;2024-03-08T10:36:06;36.75;;;20.23;;
48835;SDS011;62581;47.342;7.908;2024-03-08T10:38:35;34.90;;;19.02;;
48835;SDS011;62581;47.342;7.908;2024-03-08T10:41:04;36.20;;;20.73;;
48835;SDS011;62581;47.342;7.908;2024-03-08T10:43:32;38.60;;;20.47;;
48835;SDS011;62581;47.342;7.908;2024-03-08T10:46:11;39.20;;;19.98;;
48835;SDS011;62581;47.342;7.908;2024-03-08T10:48:50;34.25;;;19.55;;
48835;SDS011;62581;47.342;7.908;2024-03-08T10:51:21;38.17;;;21.23;;
48835;SDS011;62581;47.342;7.908;2024-03-08T10:53:49;40.10;;;21.27;;
48835;SDS011;62581;47.342;7.908;2024-03-08T10:56:19;37.90;;;20.05;;
48835;SDS011;62581;47.342;7.908;2024-03-08T10:58:47;37.85;;;20.83;;
48835;SDS011;62581;47.342;7.908;2024-03-08T11:01:15;33.35;;;18.45;;
48835;SDS011;62581;47.342;7.908;2024-03-08T11:03:46;34.15;;;18.15;;
48835;SDS011;62581;47.342;7.908;2024-03-08T11:06:29;34.40;;;18.77;;
48835;SDS011;62581;47.342;7.908;2024-03-08T11:09:08;38.90;;;19.40;;
48835;SDS011;62581;47.342;7.908;2024-03-08T11:11:42;34.67;;;18.10;;
48835;SDS011;62581;47.342;7.908;2024-03-08T11:14:42;33.28;;;18.27;;
48835;SDS011;62581;47.342;7.908;2024-03-08T11:17:12;33.47;;;18.38;;
48835;SDS011;62581;47.342;7.908;2024-03-08T11:19:45;35.83;;;18.17;;
48835;SDS011;62581;47.342;7.908;2024-03-08T11:22:21;33.38;;;18.83;;
48835;SDS011;62581;47.342;7.908;2024-03-08T11:24:52;37.15;;;18.63;;
48835;SDS011;62581;47.342;7.908;2024-03-08T11:27:19;35.05;;;18.63;;
48835;SDS011;62581;47.342;7.908;2024-03-08T11:29:59;34.35;;;18.48;;
48835;SDS011;62581;47.342;7.908;2024-03-08T11:32:33;32.63;;;18.48;;
48835;SDS011;62581;47.342;7.908;2024-03-08T11:35:05;33.13;;;18.63;;
48835;SDS011;62581;47.342;7.908;2024-03-08T11:37:35;32.60;;;17.75;;
48835;SDS011;62581;47.342;7.908;2024-03-08T11:40:06;33.58;;;18.02;;
48835;SDS011;62581;47.342;7.908;2024-03-08T11:42:43;35.88;;;18.95;;
48835;SDS011;62581;47.342;7.908;2024-03-08T11:45:11;32.28;;;18.20;;
48835;SDS011;62581;47.342;7.908;2024-03-08T11:47:39;35.65;;;17.08;;
48835;SDS011;62581;47.342;7.908;2024-03-08T11:50:09;32.00;;;17.63;;
48835;SDS011;62581;47.342;7.908;2024-03-08T11:52:39;34.92;;;18.23;;
48835;SDS011;62581;47.342;7.908;2024-03-08T11:55:08;29.10;;;16.80;;
48835;SDS011;62581;47.342;7.908;2024-03-08T11:57:35;29.45;;;17.25;;
48835;SDS011;62581;47.342;7.908;2024-03-08T12:00:03;33.53;;;18.30;;
48835;SDS011;62581;47.342;7.908;2024-03-08T12:02:32;29.80;;;16.70;;
48835;SDS011;62581;47.342;7.908;2024-03-08T12:05:03;26.13;;;16.90;;
48835;SDS011;62581;47.342;7.908;2024-03-08T12:07:34;28.65;;;16.48;;
48835;SDS011;62581;47.342;7.908;2024-03-08T12:10:15;28.38;;;17.15;;
48835;SDS011;62581;47.342;7.908;2024-03-08T12:12:43;26.80;;;16.50;;
48835;SDS011;62581;47.342;7.908;2024-03-08T12:15:12;28.17;;;16.77;;
48835;SDS011;62581;47.342;7.908;2024-03-08T12:17:40;26.70;;;16.75;;
48835;SDS011;62581;47.342;7.908;2024-03-08T12:20:11;29.08;;;16.50;;
48835;SDS011;62581;47.342;7.908;2024-03-08T12:22:40;28.42;;;16.98;;
48835;SDS011;62581;47.342;7.908;2024-03-08T12:25:08;27.88;;;16.92;;
48835;SDS011;62581;47.342;7.908;2024-03-08T12:27:38;26.88;;;15.75;;
48835;SDS011;62581;47.342;7.908;2024-03-08T12:30:17;30.20;;;17.00;;
48835;SDS011;62581;47.342;7.908;2024-03-08T12:32:47;27.02;;;15.90;;
48835;SDS011;62581;47.342;7.908;2024-03-08T12:35:17;28.20;;;17.00;;
48835;SDS011;62581;47.342;7.908;2024-03-08T12:37:44;29.27;;;17.67;;
48835;SDS011;62581;47.342;7.908;2024-03-08T12:40:11;25.20;;;16.35;;
48835;SDS011;62581;47.342;7.908;2024-03-08T12:42:43;24.25;;;16.23;;
48835;SDS011;62581;47.342;7.908;2024-03-08T12:45:12;25.17;;;15.35;;
48835;SDS011;62581;47.342;7.908;2024-03-08T12:47:40;20.63;;;15.30;;
48835;SDS011;62581;47.342;7.908;2024-03-08T12:50:09;24.88;;;16.15;;
48835;SDS011;62581;47.342;7.908;2024-03-08T12:52:37;24.60;;;14.98;;
48835;SDS011;62581;47.342;7.908;2024-03-08T12:55:04;23.23;;;15.13;;
48835;SDS011;62581;47.342;7.908;2024-03-08T12:57:33;24.33;;;15.15;;
48835;SDS011;62581;47.342;7.908;2024-03-08T13:00:04;20.15;;;14.10;;
48835;SDS011;62581;47.342;7.908;2024-03-08T13:02:38;19.55;;;14.05;;
48835;SDS011;62581;47.342;7.908;2024-03-08T13:05:05;29.00;;;14.88;;
48835;SDS011;62581;47.342;7.908;2024-03-08T13:07:34;21.63;;;15.80;;
48835;SDS011;62581;47.342;7.908;2024-03-08T13:10:03;20.00;;;14.45;;
48835;SDS011;62581;47.342;7.908;2024-03-08T13:12:31;21.77;;;14.80;;
48835;SDS011;62581;47.342;7.908;2024-03-08T13:14:58;19.73;;;14.20;;
48835;SDS011;62581;47.342;7.908;2024-03-08T13:17:26;18.75;;;14.00;;
48835;SDS011;62581;47.342;7.908;2024-03-08T13:19:54;20.33;;;14.18;;
48835;SDS011;62581;47.342;7.908;2024-03-08T13:22:24;19.85;;;14.07;;
48835;SDS011;62581;47.342;7.908;2024-03-08T13:24:53;20.85;;;15.07;;
48835;SDS011;62581;47.342;7.908;2024-03-08T13:27:20;18.45;;;14.25;;
48835;SDS011;62581;47.342;7.908;2024-03-08T13:29:49;18.20;;;14.80;;
48835;SDS011;62581;47.342;7.908;2024-03-08T13:32:16;20.33;;;14.25;;
48835;SDS011;62581;47.342;7.908;2024-03-08T13:34:47;19.05;;;14.65;;
48835;SDS011;62581;47.342;7.908;2024-03-08T13:37:16;21.80;;;14.48;;
48835;SDS011;62581;47.342;7.908;2024-03-08T13:39:43;17.65;;;13.68;;
48835;SDS011;62581;47.342;7.908;2024-03-08T13:42:10;18.52;;;14.38;;
48835;SDS011;62581;47.342;7.908;2024-03-08T13:44:44;20.67;;;14.15;;
48835;SDS011;62581;47.342;7.908;2024-03-08T13:47:12;18.92;;;13.75;;
48835;SDS011;62581;47.342;7.908;2024-03-08T13:49:40;17.08;;;14.05;;
48835;SDS011;62581;47.342;7.908;2024-03-08T13:52:10;19.17;;;14.85;;
48835;SDS011;62581;47.342;7.908;2024-03-08T13:54:37;20.25;;;14.48;;
48835;SDS011;62581;47.342;7.908;2024-03-08T13:57:05;20.35;;;14.07;;
48835;SDS011;62581;47.342;7.908;2024-03-08T13:59:32;18.90;;;14.07;;
48835;SDS011;62581;47.342;7.908;2024-03-08T14:02:00;18.33;;;13.70;;
48835;SDS011;62581;47.342;7.908;2024-03-08T14:04:27;19.40;;;14.13;;
48835;SDS011;62581;47.342;7.908;2024-03-08T14:06:54;20.60;;;14.15;;
48835;SDS011;62581;47.342;7.908;2024-03-08T14:09:28;20.83;;;14.32;;
48835;SDS011;62581;47.342;7.908;2024-03-08T14:11:56;20.05;;;14.98;;
48835;SDS011;62581;47.342;7.908;2024-03-08T14:14:23;22.17;;;15.05;;
48835;SDS011;62581;47.342;7.908;2024-03-08T14:16:50;21.77;;;15.02;;
48835;SDS011;62581;47.342;7.908;2024-03-08T14:19:20;23.42;;;15.77;;
48835;SDS011;62581;47.342;7.908;2024-03-08T14:21:47;25.80;;;15.30;;
48835;SDS011;62581;47.342;7.908;2024-03-08T14:24:15;23.77;;;14.73;;
48835;SDS011;62581;47.342;7.908;2024-03-08T14:26:43;20.67;;;15.10;;
48835;SDS011;62581;47.342;7.908;2024-03-08T14:29:11;20.17;;;14.20;;
48835;SDS011;62581;47.342;7.908;2024-03-08T14:31:38;20.70;;;15.05;;
48835;SDS011;62581;47.342;7.908;2024-03-08T14:34:06;22.52;;;14.18;;
48835;SDS011;62581;47.342;7.908;2024-03-08T14:36:34;20.13;;;13.75;;
48835;SDS011;62581;47.342;7.908;2024-03-08T14:39:01;21.13;;;14.50;;
48835;SDS011;62581;47.342;7.908;2024-03-08T14:41:28;21.38;;;14.85;;
48835;SDS011;62581;47.342;7.908;2024-03-08T14:43:57;19.40;;;14.18;;
48835;SDS011;62581;47.342;7.908;2024-03-08T14:46:24;17.70;;;13.52;;